Time;durP1;ratioP1;P1;durP2;ratioP2;P2;SDS_P1;SDS_P2;PMS_P1;PMS_P2;Temp;Humidity;BMP_temperature;BMP_pressure;BME280_temperature;BME280_humidity;BME280_pressure;Samples;Min_cycle;Max_cycle;Signal;HPM_P1;HPM_P2
2023/05/06 00:01:41;;;;;;;6.03;5.43;;;14.30;88.80;;;;;;5054981;28;20437;-49
2023/05/06 00:04:07;;;;;;;9.37;5.70;;;14.60;89.90;;;;;;5054973;28;20442;-50
2023/05/06 00:06:34;;;;;;;10.43;5.63;;;14.50;90.10;;;;;;5054802;28;20889;-50
2023/05/06 00:09:01;;;;;;;11.00;5.83;;;14.20;90.50;;;;;;5054478;28;20970;-50
2023/05/06 00:11:28;;;;;;;11.07;6.17;;;14.50;91.10;;;;;;5054418;28;20398;-50
2023/05/06 00:13:56;;;;;;;9.13;5.10;;;14.00;91.10;;;;;;5054369;28;20443;-49
2023/05/06 00:16:23;;;;;;;10.13;6.00;;;14.40;91.50;;;;;;5054727;28;20409;-50
2023/05/06 00:18:49;;;;;;;6.73;5.00;;;14.10;91.50;;;;;;5054402;28;20442;-50
2023/05/06 00:21:16;;;;;;;10.57;5.73;;;14.20;91.90;;;;;;5054711;28;20462;-50
2023/05/06 00:23:42;;;;;;;12.00;6.17;;;14.30;92.80;;;;;;5054535;28;20441;-50
2023/05/06 00:26:09;;;;;;;8.80;6.50;;;14.30;92.80;;;;;;5054407;28;20423;-49
2023/05/06 00:28:36;;;;;;;11.87;6.50;;;14.30;93.20;;;;;;5054000;28;20454;-50
2023/05/06 00:31:04;;;;;;;10.47;6.33;;;14.20;93.50;;;;;;5053624;28;20413;-49
2023/05/06 00:33:31;;;;;;;8.70;5.60;;;13.90;93.90;;;;;;5053971;28;20405;-50
2023/05/06 00:35:57;;;;;;;10.07;6.40;;;14.10;94.20;;;;;;5054559;28;20438;-49
2023/05/06 00:38:24;;;;;;;11.07;5.53;;;13.80;94.20;;;;;;5060854;28;20432;-50
2023/05/06 00:40:51;;;;;;;13.07;6.73;;;14.10;94.70;;;;;;5073987;28;20446;-50
2023/05/06 00:43:18;;;;;;;9.40;6.70;;;13.90;94.70;;;;;;5056245;28;20448;-50
2023/05/06 00:45:44;;;;;;;11.27;6.47;;;13.60;94.90;;;;;;5074150;28;20416;-49
2023/05/06 00:48:12;;;;;;;10.80;6.80;;;13.90;95.00;;;;;;5057065;28;20978;-50
2023/05/06 00:50:40;;;;;;;7.63;5.43;;;14.00;95.40;;;;;;5054233;28;20437;-48
2023/05/06 00:53:09;;;;;;;11.27;6.53;;;13.70;95.60;;;;;;5054028;28;20864;-49
2023/05/06 00:55:35;;;;;;;11.93;7.93;;;14.00;96.30;;;;;;5036025;28;20439;-49
2023/05/06 00:58:02;;;;;;;11.07;6.40;;;14.10;96.90;;;;;;5035928;28;20904;-50
2023/05/06 01:00:29;;;;;;;13.43;7.37;;;13.70;97.40;;;;;;5035769;28;20449;-50
2023/05/06 01:02:56;;;;;;;8.60;6.70;;;13.10;97.80;;;;;;5036071;28;20428;-50
2023/05/06 01:05:28;;;;;;;8.83;6.93;;;13.20;98.40;;;;;;5036067;28;20444;-49
2023/05/06 01:08:13;;;;;;;8.43;5.97;;;13.50;99.10;;;;;;5053711;28;20428;-49
2023/05/06 01:10:46;;;;;;;10.27;6.07;;;13.30;99.50;;;;;;5053681;28;20413;-48
2023/05/06 01:13:18;;;;;;;11.00;6.70;;;13.30;99.90;;;;;;5053782;28;20437;-49
2023/05/06 01:15:47;;;;;;;11.93;7.53;;;13.30;99.90;;;;;;5053531;28;20608;-49
2023/05/06 01:18:17;;;;;;;9.77;7.07;;;13.10;99.90;;;;;;5035014;28;20451;-49
2023/05/06 01:20:49;;;;;;;10.80;6.63;;;12.90;99.90;;;;;;5053267;28;20544;-49
2023/05/06 01:23:18;;;;;;;8.23;6.77;;;12.80;99.90;;;;;;5035545;28;20457;-49
2023/05/06 01:25:44;;;;;;;8.93;6.80;;;13.00;99.90;;;;;;5053238;28;20425;-49
2023/05/06 01:28:12;;;;;;;10.93;6.80;;;12.60;99.90;;;;;;5052845;28;20422;-49
2023/05/06 01:30:49;;;;;;;8.83;6.83;;;12.20;99.90;;;;;;5053196;28;20773;-50
2023/05/06 01:33:21;;;;;;;12.73;7.00;;;12.50;99.90;;;;;;5053186;28;20793;-49
2023/05/06 01:35:55;;;;;;;8.93;7.67;;;12.30;99.90;;;;;;5053304;28;20760;-49
2023/05/06 01:38:31;;;;;;;15.27;7.17;;;12.60;99.90;;;;;;5059217;28;20815;-50
2023/05/06 01:41:00;;;;;;;7.53;6.63;;;12.50;99.90;;;;;;5073016;28;20579;-49
2023/05/06 01:43:30;;;;;;;11.83;7.20;;;12.60;99.90;;;;;;5072762;28;20403;-49
2023/05/06 01:45:59;;;;;;;8.90;6.73;;;12.20;99.90;;;;;;5072947;28;20436;-48
2023/05/06 01:48:31;;;;;;;18.50;7.03;;;11.70;99.90;;;;;;5036144;28;20918;-50
2023/05/06 01:50:58;;;;;;;17.87;8.23;;;12.00;99.90;;;;;;5034993;28;20971;-50
2023/05/06 01:53:27;;;;;;;10.37;7.63;;;11.60;99.90;;;;;;5034768;28;20452;-50
2023/05/06 01:55:53;;;;;;;8.90;7.27;;;12.00;99.90;;;;;;5034613;28;20422;-49
2023/05/06 01:58:20;;;;;;;9.87;7.43;;;12.50;99.90;;;;;;5053852;23;20468;-50
2023/05/06 02:00:47;;;;;;;19.13;6.83;;;11.90;99.90;;;;;;5032762;28;20535;-49
2023/05/06 02:03:13;;;;;;;10.57;7.60;;;12.00;99.90;;;;;;5032742;28;20423;-49
2023/05/06 02:05:40;;;;;;;7.67;6.60;;;12.10;99.90;;;;;;5031421;28;20505;-50
2023/05/06 02:08:07;;;;;;;9.93;6.80;;;12.10;99.90;;;;;;5031169;28;20523;-50
2023/05/06 02:10:35;;;;;;;10.40;7.33;;;12.30;99.90;;;;;;5031234;28;20910;-50
2023/05/06 02:13:05;;;;;;;12.53;6.80;;;11.80;99.90;;;;;;5031385;28;20422;-49
2023/05/06 02:15:32;;;;;;;10.77;6.87;;;11.60;99.90;;;;;;5032518;28;20428;-49
2023/05/06 02:18:00;;;;;;;12.20;7.00;;;11.60;99.90;;;;;;5031048;28;20506;-49
2023/05/06 02:20:27;;;;;;;8.60;6.57;;;11.40;99.90;;;;;;5032133;28;20833;-50
2023/05/06 02:22:53;;;;;;;9.13;6.50;;;11.60;99.90;;;;;;5032474;28;20471;-50
2023/05/06 02:25:22;;;;;;;11.23;7.83;;;11.90;99.90;;;;;;5031273;28;20427;-50
2023/05/06 02:27:50;;;;;;;10.80;7.53;;;11.60;99.90;;;;;;5030963;28;20446;-50
2023/05/06 02:30:17;;;;;;;10.67;7.20;;;11.60;99.90;;;;;;5030688;28;20434;-49
2023/05/06 02:32:43;;;;;;;9.90;8.73;;;11.50;99.90;;;;;;5030923;28;20449;-50
2023/05/06 02:35:10;;;;;;;12.50;7.60;;;11.80;99.90;;;;;;5030820;28;20960;-50
2023/05/06 02:37:37;;;;;;;12.33;7.50;;;12.00;99.90;;;;;;5032018;28;20507;-49
2023/05/06 02:40:05;;;;;;;10.30;7.10;;;11.50;99.90;;;;;;5031666;28;20475;-52
2023/05/06 02:42:33;;;;;;;11.13;8.00;;;11.50;99.90;;;;;;5032274;28;20452;-50
2023/05/06 02:45:01;;;;;;;15.40;7.13;;;11.70;99.90;;;;;;5030853;28;20455;-50
2023/05/06 02:47:28;;;;;;;11.47;7.57;;;11.50;99.90;;;;;;5020274;28;20434;-50
2023/05/06 02:49:55;;;;;;;13.93;7.60;;;11.50;99.90;;;;;;5011794;28;20459;-49
2023/05/06 02:52:22;;;;;;;13.67;8.03;;;11.40;99.90;;;;;;5011128;28;20511;-49
2023/05/06 02:54:48;;;;;;;10.00;7.53;;;11.80;99.90;;;;;;5011692;28;20437;-50
2023/05/06 02:57:15;;;;;;;11.10;7.07;;;11.60;99.90;;;;;;5012291;28;20424;-49
2023/05/06 02:59:41;;;;;;;11.33;8.07;;;11.40;99.90;;;;;;5011839;28;20696;-49
2023/05/06 03:02:09;;;;;;;10.83;6.90;;;11.20;99.90;;;;;;5010955;28;20472;-49
2023/05/06 03:04:36;;;;;;;10.83;7.30;;;11.20;99.90;;;;;;5010780;28;20518;-50
2023/05/06 03:07:03;;;;;;;10.47;7.30;;;11.20;99.90;;;;;;5016675;28;20456;-49
2023/05/06 03:09:29;;;;;;;10.50;6.60;;;11.60;99.90;;;;;;5010315;28;20493;-49
2023/05/06 03:11:56;;;;;;;7.90;6.40;;;11.30;99.90;;;;;;5010679;28;20457;-49
2023/05/06 03:14:23;;;;;;;9.17;6.63;;;11.80;99.90;;;;;;5010764;28;20452;-49
2023/05/06 03:16:50;;;;;;;11.47;7.27;;;11.20;99.90;;;;;;5010879;28;20458;-49
2023/05/06 03:19:18;;;;;;;9.87;6.97;;;10.80;99.90;;;;;;5011509;28;20798;-49
2023/05/06 03:21:45;;;;;;;12.60;7.00;;;11.40;99.90;;;;;;5010533;28;20459;-49
2023/05/06 03:24:11;;;;;;;9.60;7.40;;;11.20;99.90;;;;;;5010702;28;20589;-49
2023/05/06 03:26:38;;;;;;;9.73;7.20;;;11.20;99.90;;;;;;5010764;28;20818;-49
2023/05/06 03:29:06;;;;;;;9.40;6.47;;;10.50;99.90;;;;;;5010240;28;20501;-49
2023/05/06 03:31:32;;;;;;;11.73;6.43;;;10.90;99.90;;;;;;5011619;28;20411;-48
2023/05/06 03:34:01;;;;;;;10.93;7.30;;;11.50;99.90;;;;;;5010470;28;20432;-49
2023/05/06 03:36:30;;;;;;;9.77;7.10;;;11.20;99.90;;;;;;5010614;28;20457;-49
2023/05/06 03:38:57;;;;;;;10.50;7.97;;;11.00;99.90;;;;;;5021257;28;21011;-49
2023/05/06 03:41:24;;;;;;;11.03;7.30;;;11.00;99.90;;;;;;5030164;28;20451;-49
2023/05/06 03:43:54;;;;;;;8.17;6.60;;;10.90;99.90;;;;;;5030399;28;20816;-50
2023/05/06 03:46:22;;;;;;;9.13;6.73;;;11.20;99.90;;;;;;5028697;28;20426;-49
2023/05/06 03:48:49;;;;;;;11.83;7.20;;;10.70;99.90;;;;;;5010116;28;20494;-50
2023/05/06 03:51:18;;;;;;;12.50;6.93;;;10.90;99.90;;;;;;5010368;28;20511;-48
2023/05/06 03:53:46;;;;;;;8.97;7.87;;;10.70;99.90;;;;;;5010393;28;20450;-48
2023/05/06 03:56:16;;;;;;;10.33;6.60;;;11.10;99.90;;;;;;5010397;28;20456;-49
2023/05/06 03:58:44;;;;;;;7.77;6.50;;;10.20;99.90;;;;;;5009870;28;20986;-49
2023/05/06 04:01:11;;;;;;;8.43;7.33;;;11.00;99.90;;;;;;5010403;28;20453;-49
2023/05/06 04:03:38;;;;;;;14.10;7.40;;;11.00;99.90;;;;;;5011725;28;20407;-49
2023/05/06 04:06:05;;;;;;;11.47;8.43;;;11.10;99.90;;;;;;5011803;28;20917;-49
2023/05/06 04:08:32;;;;;;;7.63;6.83;;;10.40;99.90;;;;;;5014735;28;20927;-48
2023/05/06 04:11:05;;;;;;;11.80;7.17;;;10.60;99.90;;;;;;5013904;28;20419;-50
2023/05/06 04:13:32;;;;;;;14.47;7.67;;;11.10;99.90;;;;;;5013639;28;20427;-49
2023/05/06 04:16:02;;;;;;;11.70;7.20;;;11.10;99.90;;;;;;5013688;28;20647;-50
2023/05/06 04:18:34;;;;;;;8.90;7.43;;;10.80;99.90;;;;;;5013355;28;20502;-48
2023/05/06 04:21:07;;;;;;;9.33;6.87;;;10.50;99.90;;;;;;5013550;28;21004;-50
2023/05/06 04:23:36;;;;;;;10.53;8.17;;;10.60;99.90;;;;;;5013447;28;21018;-49
2023/05/06 04:26:04;;;;;;;9.93;7.80;;;10.70;99.90;;;;;;5014735;28;20435;-49
2023/05/06 04:28:33;;;;;;;11.00;7.60;;;10.70;99.90;;;;;;5015984;28;20545;-49
2023/05/06 04:31:01;;;;;;;10.73;7.30;;;10.40;99.90;;;;;;5013438;28;20486;-50
2023/05/06 04:33:36;;;;;;;12.10;7.97;;;10.50;99.90;;;;;;5013428;28;20634;-49
2023/05/06 04:36:06;;;;;;;8.93;7.30;;;10.90;99.90;;;;;;5013596;28;20461;-49
2023/05/06 04:38:36;;;;;;;10.30;8.10;;;10.60;99.90;;;;;;5021049;28;20499;-50
2023/05/06 04:41:04;;;;;;;11.07;7.50;;;10.60;99.90;;;;;;5032968;28;20450;-49
2023/05/06 04:43:31;;;;;;;9.67;7.20;;;10.60;99.90;;;;;;5033080;28;20453;-50
2023/05/06 04:46:05;;;;;;;11.40;7.70;;;10.80;99.90;;;;;;5032966;28;20425;-49
2023/05/06 04:48:36;;;;;;;10.80;7.50;;;10.60;99.90;;;;;;5013163;28;20790;-50
2023/05/06 04:51:04;;;;;;;8.47;6.93;;;11.20;99.90;;;;;;5013060;28;20973;-51
2023/05/06 04:53:32;;;;;;;11.40;8.00;;;10.60;99.90;;;;;;5013286;28;20415;-50
2023/05/06 04:55:59;;;;;;;13.63;7.43;;;10.50;99.90;;;;;;5013139;28;21044;-50
2023/05/06 04:58:27;;;;;;;10.80;7.60;;;10.20;99.90;;;;;;5013720;28;20479;-48
2023/05/06 05:00:56;;;;;;;10.43;7.10;;;11.00;99.90;;;;;;5014097;28;20951;-49
2023/05/06 05:03:22;;;;;;;9.80;7.00;;;11.10;99.90;;;;;;5012684;28;20455;-50
2023/05/06 05:05:49;;;;;;;12.13;8.27;;;10.50;99.90;;;;;;5012778;28;20453;-49
2023/05/06 05:08:19;;;;;;;11.50;7.50;;;11.10;99.90;;;;;;5012222;28;20472;-49
2023/05/06 05:10:45;;;;;;;8.43;7.00;;;10.70;99.90;;;;;;5012601;28;20931;-49
2023/05/06 05:13:16;;;;;;;9.80;6.80;;;10.40;99.90;;;;;;5012562;28;20444;-49
2023/05/06 05:15:45;;;;;;;13.30;7.50;;;10.70;99.90;;;;;;5012764;28;20472;-48
2023/05/06 05:18:14;;;;;;;12.53;7.10;;;10.50;99.90;;;;;;5011781;28;20892;-50
2023/05/06 05:20:42;;;;;;;8.77;6.93;;;10.70;99.90;;;;;;5013808;28;20531;-49
2023/05/06 05:23:11;;;;;;;8.43;6.30;;;10.70;99.90;;;;;;5012421;28;20441;-49
2023/05/06 05:25:38;;;;;;;11.53;7.50;;;10.80;99.90;;;;;;5012556;28;20423;-49
2023/05/06 05:28:05;;;;;;;11.37;7.60;;;10.50;99.90;;;;;;5012017;28;20969;-50
2023/05/06 05:30:34;;;;;;;8.67;7.77;;;11.00;99.90;;;;;;5012253;28;20449;-49
2023/05/06 05:33:02;;;;;;;13.67;8.00;;;10.60;99.90;;;;;;5012066;28;20424;-50
2023/05/06 05:35:30;;;;;;;9.83;7.60;;;10.90;99.90;;;;;;5012087;28;20420;-50
2023/05/06 05:37:56;;;;;;;12.20;8.60;;;10.70;99.90;;;;;;5015003;28;20422;-50
2023/05/06 05:40:24;;;;;;;10.17;8.00;;;11.00;99.90;;;;;;5031804;28;20822;-50
2023/05/06 05:42:53;;;;;;;8.70;7.20;;;10.60;99.90;;;;;;5031662;28;20824;-49
2023/05/06 05:45:29;;;;;;;9.90;7.50;;;10.70;99.90;;;;;;5031891;28;20451;-50
2023/05/06 05:47:56;;;;;;;9.83;7.47;;;10.50;99.90;;;;;;5020420;28;20433;-50
2023/05/06 05:50:25;;;;;;;9.00;7.40;;;10.70;99.90;;;;;;5011846;28;20423;-50
2023/05/06 05:52:52;;;;;;;10.70;7.67;;;10.30;99.90;;;;;;5012045;28;20439;-49
2023/05/06 05:55:20;;;;;;;11.17;9.33;;;10.00;99.90;;;;;;5011667;28;20447;-50
2023/05/06 05:57:47;;;;;;;11.23;8.33;;;10.80;99.90;;;;;;5011717;28;20446;-49
2023/05/06 06:00:17;;;;;;;8.50;7.30;;;11.10;99.90;;;;;;5011554;28;20933;-50
2023/05/06 06:02:43;;;;;;;9.70;8.07;;;10.50;99.90;;;;;;5013107;28;20789;-50
2023/05/06 06:05:12;;;;;;;10.10;7.00;;;10.30;99.90;;;;;;5011668;28;20432;-50
2023/05/06 06:07:40;;;;;;;12.20;7.43;;;10.60;99.90;;;;;;5011567;28;20438;-50
2023/05/06 06:10:08;;;;;;;9.13;7.87;;;10.50;99.90;;;;;;5010977;28;20426;-48
2023/05/06 06:12:35;;;;;;;9.90;7.83;;;10.50;99.90;;;;;;5011695;28;20452;-49
2023/05/06 06:15:02;;;;;;;11.23;7.20;;;10.60;99.90;;;;;;5011480;28;20438;-49
2023/05/06 06:17:30;;;;;;;9.90;6.50;;;10.50;99.90;;;;;;5011524;28;20464;-49
2023/05/06 06:19:58;;;;;;;10.20;7.47;;;10.70;99.90;;;;;;5010948;28;20471;-49
2023/05/06 06:22:25;;;;;;;11.00;8.20;;;10.90;99.90;;;;;;5011268;28;20448;-49
2023/05/06 06:24:55;;;;;;;9.60;6.70;;;10.00;99.90;;;;;;5011192;28;20437;-49
2023/05/06 06:27:22;;;;;;;11.33;7.93;;;10.80;99.90;;;;;;5011189;28;20431;-49
2023/05/06 06:29:48;;;;;;;10.23;7.47;;;10.40;99.90;;;;;;5010155;28;20500;-49
2023/05/06 06:32:15;;;;;;;10.23;7.90;;;10.40;99.90;;;;;;5011474;28;20427;-49
2023/05/06 06:34:42;;;;;;;8.60;7.60;;;10.40;99.90;;;;;;5011375;28;20433;-49
2023/05/06 06:37:10;;;;;;;8.00;6.93;;;10.60;99.90;;;;;;5012572;28;20440;-50
2023/05/06 06:39:37;;;;;;;9.60;7.77;;;10.60;99.90;;;;;;5028696;28;20459;-50
2023/05/06 06:42:05;;;;;;;9.07;7.90;;;10.50;99.90;;;;;;5032522;28;20465;-50
2023/05/06 06:44:38;;;;;;;13.33;8.90;;;10.80;99.90;;;;;;5030660;28;20417;-49
2023/05/06 06:47:04;;;;;;;9.37;7.80;;;10.30;99.90;;;;;;5024715;28;20739;-50
2023/05/06 06:49:31;;;;;;;9.70;7.20;;;10.50;99.90;;;;;;5011625;28;20438;-50
2023/05/06 06:51:58;;;;;;;9.40;7.80;;;10.50;99.90;;;;;;5012093;28;20798;-49
2023/05/06 06:54:24;;;;;;;11.20;8.20;;;10.60;99.90;;;;;;5012101;28;20425;-50
2023/05/06 06:56:54;;;;;;;10.33;8.70;;;10.30;99.90;;;;;;5010838;28;20437;-50
2023/05/06 06:59:22;;;;;;;12.13;8.60;;;10.40;99.90;;;;;;5011694;28;20481;-50
2023/05/06 07:01:49;;;;;;;10.10;7.70;;;10.60;99.90;;;;;;5011925;28;20476;-49
2023/05/06 07:04:15;;;;;;;9.40;8.10;;;10.50;99.90;;;;;;5011945;28;20434;-50
2023/05/06 07:06:42;;;;;;;11.20;7.47;;;10.80;99.90;;;;;;5012182;28;20439;-50
2023/05/06 07:09:09;;;;;;;10.70;8.20;;;10.70;99.90;;;;;;5015461;28;20423;-50
2023/05/06 07:11:35;;;;;;;11.07;8.70;;;10.60;99.90;;;;;;5012011;28;20487;-50
2023/05/06 07:14:02;;;;;;;12.17;8.50;;;10.50;99.90;;;;;;5011794;28;20411;-50
2023/05/06 07:16:30;;;;;;;11.73;8.20;;;10.50;99.90;;;;;;5011888;28;20437;-50
2023/05/06 07:18:56;;;;;;;10.30;8.00;;;10.70;99.90;;;;;;5011390;28;20507;-50
2023/05/06 07:21:23;;;;;;;10.90;8.37;;;10.60;99.90;;;;;;5011767;28;20446;-50
2023/05/06 07:23:50;;;;;;;12.40;8.30;;;10.50;99.90;;;;;;5011741;28;20418;-51
2023/05/06 07:26:16;;;;;;;9.63;8.50;;;10.70;99.90;;;;;;5011738;28;20414;-50
2023/05/06 07:28:43;;;;;;;11.13;8.20;;;10.40;99.90;;;;;;5011357;28;20444;-49
2023/05/06 07:31:10;;;;;;;11.90;9.53;;;10.10;99.90;;;;;;5011732;28;20415;-49
2023/05/06 07:33:37;;;;;;;8.97;7.57;;;10.50;99.90;;;;;;5011617;28;20418;-49
2023/05/06 07:36:05;;;;;;;9.87;8.40;;;10.30;99.90;;;;;;5011727;28;20411;-49
2023/05/06 07:38:31;;;;;;;11.17;9.47;;;10.60;99.90;;;;;;5018714;28;20574;-49
2023/05/06 07:40:58;;;;;;;10.43;8.63;;;10.60;99.90;;;;;;5031252;28;20426;-49
2023/05/06 07:43:24;;;;;;;10.90;9.80;;;10.40;99.90;;;;;;5034985;28;20453;-52
2023/05/06 07:45:51;;;;;;;11.00;9.90;;;10.50;99.90;;;;;;5035256;28;20565;-49
2023/05/06 07:48:18;;;;;;;11.50;8.80;;;10.60;99.90;;;;;;5017285;28;20464;-49
2023/05/06 07:50:46;;;;;;;12.60;9.33;;;10.80;99.90;;;;;;5015243;28;20454;-49
2023/05/06 07:53:13;;;;;;;10.40;9.30;;;11.00;99.90;;;;;;5015413;28;20509;-50
2023/05/06 07:55:39;;;;;;;12.80;10.00;;;10.80;99.90;;;;;;5015432;28;20434;-49
2023/05/06 08:00:34;;;;;;;12.00;10.00;;;10.50;99.90;;;;;;5013313;28;20427;-51
2023/05/06 08:03:01;;;;;;;12.07;9.77;;;10.90;99.90;;;;;;5014916;28;20454;-51
2023/05/06 08:05:27;;;;;;;12.03;10.70;;;10.50;99.90;;;;;;5015144;28;20411;-50
2023/05/06 08:07:55;;;;;;;11.87;10.67;;;10.30;99.90;;;;;;5014881;28;20757;-52
2023/05/06 08:10:22;;;;;;;12.20;10.60;;;10.10;99.90;;;;;;5014495;28;20510;-50
2023/05/06 08:12:48;;;;;;;12.80;10.73;;;10.90;99.90;;;;;;5014831;28;20418;-52
2023/05/06 08:15:16;;;;;;;14.53;10.43;;;10.90;99.90;;;;;;5014559;28;20501;-49
2023/05/06 08:17:42;;;;;;;12.40;10.30;;;10.60;99.90;;;;;;4997161;28;20449;-51
2023/05/06 08:20:10;;;;;;;13.60;10.10;;;10.90;99.90;;;;;;5014289;28;20443;-51
2023/05/06 08:22:38;;;;;;;14.27;10.83;;;10.60;99.90;;;;;;5014659;28;20443;-50
2023/05/06 08:25:07;;;;;;;14.37;11.03;;;10.90;99.90;;;;;;5014733;28;20509;-50
2023/05/06 08:27:33;;;;;;;14.53;10.60;;;10.90;99.90;;;;;;5014472;28;20768;-51
2023/05/06 08:30:00;;;;;;;12.73;11.27;;;10.70;99.90;;;;;;5013050;28;20456;-51
2023/05/06 08:32:27;;;;;;;10.90;9.90;;;10.90;99.90;;;;;;5014605;28;20785;-50
2023/05/06 08:34:53;;;;;;;12.10;10.90;;;11.20;99.90;;;;;;5014665;28;20785;-51
2023/05/06 08:37:20;;;;;;;12.40;11.20;;;10.90;99.90;;;;;;5014641;28;20780;-51
2023/05/06 08:39:46;;;;;;;13.87;11.50;;;10.90;99.90;;;;;;5013878;28;20439;-51
2023/05/06 08:42:14;;;;;;;12.27;10.97;;;10.90;99.90;;;;;;5014225;28;20469;-50
2023/05/06 08:44:43;;;;;;;12.90;11.70;;;10.60;99.90;;;;;;5014746;28;20864;-50
2023/05/06 08:47:10;;;;;;;12.90;11.33;;;11.00;99.90;;;;;;5014587;28;20443;-50
2023/05/06 08:49:37;;;;;;;13.80;12.40;;;11.10;99.90;;;;;;5013988;28;20480;-51
2023/05/06 08:52:05;;;;;;;13.90;11.10;;;11.30;99.90;;;;;;5013626;28;20415;-51
2023/05/06 08:54:34;;;;;;;12.60;11.33;;;10.80;99.90;;;;;;5014408;28;20443;-50
2023/05/06 08:57:04;;;;;;;13.20;11.80;;;11.00;99.90;;;;;;5014342;28;20487;-50
2023/05/06 08:59:33;;;;;;;13.03;11.43;;;10.90;99.90;;;;;;5013901;28;20509;-50
2023/05/06 09:02:00;;;;;;;12.07;10.70;;;11.10;99.90;;;;;;5014323;28;20416;-50
2023/05/06 09:04:26;;;;;;;13.70;11.80;;;10.90;99.90;;;;;;4996544;28;20786;-50
2023/05/06 09:06:53;;;;;;;13.20;11.30;;;11.30;99.90;;;;;;5014031;28;20412;-51
2023/05/06 09:09:20;;;;;;;12.73;11.43;;;11.00;99.90;;;;;;5013376;28;20427;-50
2023/05/06 09:11:52;;;;;;;12.50;11.30;;;11.10;99.90;;;;;;5014516;28;20407;-51
2023/05/06 09:14:20;;;;;;;11.70;9.50;;;11.00;99.90;;;;;;4996498;28;20434;-51
2023/05/06 09:16:51;;;;;;;12.87;10.43;;;11.00;99.90;;;;;;5013939;28;20407;-51
2023/05/06 09:19:19;;;;;;;13.40;12.10;;;11.50;99.90;;;;;;5013840;28;21006;-50
2023/05/06 09:21:47;;;;;;;10.53;9.63;;;11.00;99.90;;;;;;5013464;28;20521;-51
2023/05/06 09:24:17;;;;;;;10.97;9.87;;;11.40;99.90;;;;;;5013656;28;20455;-51
2023/05/06 09:26:45;;;;;;;11.87;10.67;;;11.40;99.90;;;;;;5014130;28;20408;-51
2023/05/06 09:29:12;;;;;;;10.00;9.07;;;11.00;99.90;;;;;;5013137;28;20458;-50
2023/05/06 09:31:43;;;;;;;10.03;9.03;;;11.20;99.90;;;;;;5014035;28;20433;-51
2023/05/06 09:34:13;;;;;;;9.50;8.60;;;11.00;99.90;;;;;;5013726;28;20470;-50
2023/05/06 09:36:40;;;;;;;11.83;8.87;;;11.10;99.90;;;;;;5014224;28;20407;-50
2023/05/06 09:39:07;;;;;;;14.17;9.57;;;11.30;99.90;;;;;;5013710;28;20464;-51
2023/05/06 09:41:34;;;;;;;10.83;9.60;;;11.20;99.90;;;;;;5013784;28;20939;-49
2023/05/06 09:44:01;;;;;;;11.47;10.10;;;11.40;99.90;;;;;;5013224;28;20459;-50
2023/05/06 09:46:27;;;;;;;9.50;8.63;;;11.40;99.90;;;;;;5013370;28;20407;-51
2023/05/06 09:48:56;;;;;;;10.10;9.10;;;11.20;99.90;;;;;;5012548;28;20439;-50
2023/05/06 09:51:27;;;;;;;9.30;8.40;;;11.10;99.90;;;;;;4995512;28;20426;-50
2023/05/06 09:53:55;;;;;;;9.50;8.20;;;11.60;99.90;;;;;;5013140;28;20480;-50
2023/05/06 09:56:23;;;;;;;9.03;8.13;;;11.30;99.90;;;;;;5013161;28;20403;-50
2023/05/06 09:58:51;;;;;;;9.37;8.37;;;11.10;99.90;;;;;;5012937;28;21073;-49
2023/05/06 10:01:19;;;;;;;9.83;8.97;;;11.10;99.90;;;;;;5013410;28;20438;-51
2023/05/06 10:03:46;;;;;;;9.70;8.53;;;11.30;99.90;;;;;;5013121;28;20458;-51
2023/05/06 10:06:12;;;;;;;9.60;8.60;;;11.40;99.90;;;;;;5013059;28;20424;-51
2023/05/06 10:08:41;;;;;;;9.43;8.53;;;11.80;99.90;;;;;;5012920;28;20496;-51
2023/05/06 10:11:09;;;;;;;9.73;8.83;;;11.80;99.90;;;;;;5012273;28;20930;-50
2023/05/06 10:13:38;;;;;;;9.47;8.30;;;11.60;99.90;;;;;;5012581;28;20411;-50
2023/05/06 10:16:07;;;;;;;8.80;7.87;;;11.40;99.90;;;;;;5012714;28;20418;-50
2023/05/06 10:18:36;;;;;;;8.90;8.10;;;11.30;99.90;;;;;;5012262;28;20427;-50
2023/05/06 10:21:09;;;;;;;8.07;7.27;;;11.30;99.90;;;;;;5012683;28;20438;-51
2023/05/06 10:23:48;;;;;;;9.20;8.30;;;11.70;99.90;;;;;;5012454;28;20490;-50
2023/05/06 10:26:16;;;;;;;8.90;8.10;;;11.60;99.90;;;;;;5012434;28;20519;-50
2023/05/06 10:28:48;;;;;;;8.60;7.33;;;11.40;99.90;;;;;;5012014;28;20438;-51
2023/05/06 10:31:15;;;;;;;8.50;7.80;;;11.10;99.90;;;;;;5012405;28;20418;-51
2023/05/06 10:33:47;;;;;;;8.50;7.70;;;11.50;99.90;;;;;;5012354;28;20444;-51
2023/05/06 10:36:19;;;;;;;8.50;7.60;;;11.00;99.90;;;;;;5012580;28;20418;-49
2023/05/06 10:38:51;;;;;;;8.53;7.70;;;11.60;99.90;;;;;;5011796;28;21025;-49
2023/05/06 10:41:20;;;;;;;9.30;8.40;;;11.10;99.90;;;;;;5012681;28;20423;-49
2023/05/06 10:43:48;;;;;;;9.20;8.30;;;11.60;99.90;;;;;;5012256;28;20454;-50
2023/05/06 10:46:16;;;;;;;9.37;7.60;;;11.10;99.90;;;;;;5012290;28;20507;-52
2023/05/06 10:49:21;;;;;;;8.33;7.57;;;11.00;99.90;;;;;;5011928;28;20783;-50
2023/05/06 10:52:10;;;;;;;8.97;7.53;;;11.10;99.90;;;;;;4985540;28;20433;-51
2023/05/06 10:54:49;;;;;;;9.90;8.93;;;11.20;99.90;;;;;;5012192;28;20462;-50
2023/05/06 10:57:17;;;;;;;6.70;6.10;;;11.00;99.90;;;;;;5011937;28;20436;-50
2023/05/06 10:59:46;;;;;;;8.17;6.23;;;11.00;99.90;;;;;;5011881;28;20439;-50
2023/05/06 11:02:13;;;;;;;8.70;6.90;;;11.20;99.90;;;;;;4994672;28;21023;-51
2023/05/06 11:04:40;;;;;;;7.13;6.43;;;10.80;99.90;;;;;;5012069;28;20488;-51
2023/05/06 11:07:10;;;;;;;7.83;6.57;;;11.00;99.90;;;;;;5012195;28;20444;-51
2023/05/06 11:09:56;;;;;;;6.83;6.10;;;11.20;99.90;;;;;;5011481;28;20432;-50
2023/05/06 11:12:42;;;;;;;6.83;5.93;;;11.20;99.90;;;;;;5012165;28;20915;-50
2023/05/06 11:15:25;;;;;;;6.67;5.97;;;11.10;99.90;;;;;;5012069;28;20562;-50
2023/05/06 11:17:53;;;;;;;6.33;5.13;;;11.40;99.90;;;;;;5015459;28;20435;-51
2023/05/06 11:20:22;;;;;;;5.47;4.97;;;11.50;99.90;;;;;;5015518;28;20460;-50
2023/05/06 11:22:49;;;;;;;6.30;5.40;;;11.30;99.90;;;;;;5015827;28;20435;-51
2023/05/06 11:28:11;;;;;;;5.67;5.17;;;11.50;99.90;;;;;;5088948;27;20515;-51
2023/05/06 11:30:41;;;;;;;5.20;4.70;;;11.10;99.90;;;;;;5087831;28;20815;-51
2023/05/06 11:33:08;;;;;;;7.50;5.50;;;10.70;99.90;;;;;;5089114;28;20443;-50
2023/05/06 11:35:35;;;;;;;5.87;5.37;;;11.40;99.90;;;;;;5089049;28;20412;-51
2023/05/06 11:38:02;;;;;;;7.27;4.70;;;11.40;99.90;;;;;;5088538;28;20422;-50
2023/05/06 11:40:29;;;;;;;5.83;4.50;;;11.30;99.90;;;;;;5094245;22;20472;-49
2023/05/06 11:42:56;;;;;;;8.07;4.97;;;11.50;99.90;;;;;;5068563;28;20547;-49
2023/05/06 11:45:24;;;;;;;6.10;5.50;;;11.40;99.90;;;;;;5068116;28;20404;-49
2023/05/06 11:47:54;;;;;;;5.50;5.00;;;11.20;99.90;;;;;;5068276;28;20460;-50
2023/05/06 11:50:22;;;;;;;6.40;5.10;;;11.50;99.90;;;;;;5067923;28;20484;-49
2023/05/06 11:52:49;;;;;;;5.77;5.17;;;11.10;99.90;;;;;;5068338;28;20453;-49
2023/05/06 11:55:16;;;;;;;5.80;5.00;;;10.70;99.90;;;;;;5067955;28;20811;-49
2023/05/06 11:57:45;;;;;;;4.83;4.33;;;11.70;99.90;;;;;;5068074;28;20422;-49
2023/05/06 12:00:13;;;;;;;4.83;4.20;;;10.90;99.90;;;;;;5067736;28;20602;-50
2023/05/06 12:02:41;;;;;;;9.97;5.50;;;11.30;99.90;;;;;;5068422;28;20416;-50
2023/05/06 12:05:09;;;;;;;4.90;4.50;;;11.40;99.90;;;;;;5050128;28;20429;-50
2023/05/06 12:07:37;;;;;;;5.13;4.63;;;11.20;99.90;;;;;;5067694;28;21027;-49
2023/05/06 12:10:05;;;;;;;5.70;5.17;;;11.70;99.90;;;;;;5067442;28;20426;-50
2023/05/06 12:12:32;;;;;;;5.63;4.90;;;11.40;99.90;;;;;;5067956;28;20763;-50
2023/05/06 12:14:59;;;;;;;5.10;4.60;;;11.40;99.90;;;;;;5067930;28;20447;-51
2023/05/06 12:17:26;;;;;;;4.77;4.37;;;11.80;99.90;;;;;;5067733;28;20414;-49
2023/05/06 12:19:54;;;;;;;7.10;4.50;;;11.10;99.90;;;;;;5067255;28;20462;-50
2023/05/06 12:22:23;;;;;;;8.53;4.60;;;11.50;99.90;;;;;;5067276;28;20529;-49
2023/05/06 12:24:50;;;;;;;5.90;4.43;;;11.20;99.90;;;;;;5067285;28;20958;-49
2023/05/06 12:27:31;;;;;;;6.37;5.00;;;11.30;99.90;;;;;;5066963;28;20847;-51
2023/05/06 12:29:59;;;;;;;4.80;4.30;;;11.40;99.90;;;;;;5066957;28;20496;-51
2023/05/06 12:32:25;;;;;;;6.40;4.10;;;11.30;99.90;;;;;;5067059;28;20497;-51
2023/05/06 12:34:54;;;;;;;4.30;3.90;;;11.30;99.90;;;;;;5067019;28;20771;-50
2023/05/06 12:37:25;;;;;;;5.67;4.27;;;11.60;99.90;;;;;;5065884;28;20504;-50
2023/05/06 12:39:52;;;;;;;5.30;4.57;;;11.60;99.90;;;;;;5053290;28;20799;-50
2023/05/06 12:42:20;;;;;;;7.03;4.73;;;11.30;99.90;;;;;;5053353;28;20416;-50
2023/05/06 12:44:47;;;;;;;5.47;4.43;;;11.60;99.90;;;;;;5053756;28;20411;-50
2023/05/06 12:47:19;;;;;;;5.17;4.40;;;11.30;99.90;;;;;;5053866;28;20449;-51
2023/05/06 12:49:47;;;;;;;6.73;4.90;;;11.10;99.90;;;;;;5035797;28;20438;-50
2023/05/06 12:52:16;;;;;;;3.90;3.57;;;11.40;99.90;;;;;;5053840;28;20447;-50